Time;durP1;ratioP1;P1;durP2;ratioP2;P2;SDS_P1;SDS_P2;PMS_P1;PMS_P2;Temp;Humidity;BMP_temperature;BMP_pressure;BME280_temperature;BME280_humidity;BME280_pressure;Samples;Min_cycle;Max_cycle;Signal;HPM_P1;HPM_P2
2023/12/12 00:01:24;;;;;;;14.50;13.40;;;;;;;5.35;100.00;100590.63;10408490;28;20037;-76
2023/12/12 00:06:24;;;;;;;16.13;14.63;;;;;;;5.32;100.00;100573.88;10461175;28;20044;-77
2023/12/12 00:11:25;;;;;;;14.43;13.13;;;;;;;5.42;100.00;100604.22;10442926;28;20033;-76
2023/12/12 00:16:25;;;;;;;12.88;11.82;;;;;;;5.35;100.00;100585.16;10460485;28;20059;-76
2023/12/12 00:21:26;;;;;;;13.90;12.65;;;;;;;5.36;100.00;100592.31;10421451;28;20056;-77
2023/12/12 00:26:26;;;;;;;13.77;12.50;;;;;;;5.28;100.00;100592.59;10425301;28;20067;-77
2023/12/12 00:31:26;;;;;;;14.50;13.20;;;;;;;5.18;100.00;100586.81;10460650;28;20045;-77
2023/12/12 00:36:27;;;;;;;14.27;13.25;;;;;;;5.13;100.00;100586.69;10442427;28;20033;-77
2023/12/12 00:41:32;;;;;;;15.32;14.13;;;;;;;4.96;100.00;100590.00;10425581;28;20033;-77
2023/12/12 00:46:34;;;;;;;16.25;15.15;;;;;;;4.81;100.00;100592.22;10444577;28;20124;-77
2023/12/12 00:51:34;;;;;;;17.13;16.02;;;;;;;4.60;100.00;100598.88;10456584;28;20033;-75
2023/12/12 00:56:35;;;;;;;17.48;15.93;;;;;;;4.39;100.00;100597.38;10431371;28;20037;-77
2023/12/12 01:01:35;;;;;;;16.92;15.73;;;;;;;4.24;100.00;100600.41;10456846;28;20048;-76
2023/12/12 01:06:36;;;;;;;18.05;16.58;;;;;;;4.15;100.00;100596.25;10432993;28;20105;-77
2023/12/12 01:11:36;;;;;;;17.33;16.10;;;;;;;4.04;100.00;100600.50;10440689;28;20029;-77
2023/12/12 01:16:37;;;;;;;19.13;17.63;;;;;;;3.87;100.00;100615.69;10435405;28;20512;-77
2023/12/12 01:21:37;;;;;;;19.20;17.67;;;;;;;3.61;100.00;100593.78;10436478;28;20404;-77
2023/12/12 01:26:39;;;;;;;18.90;17.20;;;;;;;3.54;100.00;100612.03;10450889;28;20048;-77
2023/12/12 01:31:42;;;;;;;18.58;17.35;;;;;;;3.32;100.00;100597.03;10390695;28;20155;-76
2023/12/12 01:36:43;;;;;;;16.58;15.02;;;;;;;3.32;100.00;100597.03;10404098;28;20041;-76
2023/12/12 01:41:47;;;;;;;18.48;16.48;;;;;;;3.25;100.00;100609.84;10429831;28;20037;-77
2023/12/12 01:46:48;;;;;;;17.43;16.23;;;;;;;3.08;100.00;100612.13;10419347;28;20124;-77
2023/12/12 01:51:49;;;;;;;17.27;15.85;;;;;;;2.92;100.00;100611.53;10435219;28;20049;-75
2023/12/12 01:56:51;;;;;;;16.92;15.35;;;;;;;2.86;100.00;100601.50;10417084;28;20041;-76
2023/12/12 02:01:51;;;;;;;16.98;15.90;;;;;;;2.79;100.00;100603.38;10419231;28;20080;-76
2023/12/12 02:06:52;;;;;;;16.33;15.13;;;;;;;2.73;100.00;100607.78;10415738;28;20037;-77
2023/12/12 02:11:53;;;;;;;19.00;16.35;;;;;;;2.72;100.00;100603.38;10401134;28;20051;-75
2023/12/12 02:16:54;;;;;;;16.93;15.50;;;;;;;2.67;100.00;100596.91;10439127;28;20055;-76
2023/12/12 02:21:54;;;;;;;18.17;16.45;;;;;;;2.61;100.00;100591.25;10438232;28;20044;-76
2023/12/12 02:26:55;;;;;;;17.10;15.80;;;;;;;2.66;100.00;100614.25;10420814;28;20052;-76
2023/12/12 02:31:55;;;;;;;18.00;16.30;;;;;;;2.48;100.00;100604.00;10437546;28;20111;-76
2023/12/12 02:36:56;;;;;;;17.52;15.80;;;;;;;2.47;100.00;100614.03;10401986;28;20037;-76
2023/12/12 02:41:57;;;;;;;18.60;16.90;;;;;;;2.04;100.00;100556.53;10431385;28;20087;-76
2023/12/12 02:46:57;;;;;;;17.45;16.13;;;;;;;2.22;100.00;100609.19;10453113;28;20041;-73
2023/12/12 02:51:58;;;;;;;16.25;14.68;;;;;;;2.34;100.00;100606.72;10450262;28;20052;-75
2023/12/12 02:56:58;;;;;;;15.65;14.45;;;;;;;2.52;100.00;100617.00;10418610;28;20038;-76
2023/12/12 03:01:59;;;;;;;17.57;16.07;;;;;;;2.68;100.00;100612.16;10449865;28;20049;-75
2023/12/12 03:06:59;;;;;;;16.55;14.80;;;;;;;2.89;100.00;100613.84;10437267;28;20037;-76
2023/12/12 03:12:00;;;;;;;17.00;15.40;;;;;;;3.08;100.00;100623.03;10454743;28;20037;-76
2023/12/12 03:17:00;;;;;;;17.10;15.45;;;;;;;3.19;100.00;100600.63;10437045;28;20045;-76
2023/12/12 03:22:01;;;;;;;17.13;15.50;;;;;;;3.30;100.00;100599.97;10394932;28;20048;-76
2023/12/12 03:27:02;;;;;;;17.10;15.63;;;;;;;3.34;100.00;100601.22;10432209;28;20061;-76
2023/12/12 03:32:03;;;;;;;17.80;16.27;;;;;;;3.34;100.00;100586.78;10411726;28;20572;-76
2023/12/12 03:37:04;;;;;;;18.08;16.38;;;;;;;3.40;100.00;100600.34;10428499;28;20045;-76
2023/12/12 03:42:05;;;;;;;18.55;16.65;;;;;;;3.38;100.00;100585.31;10448441;28;20033;-76
2023/12/12 03:47:06;;;;;;;17.90;16.48;;;;;;;3.37;100.00;100583.59;10429163;28;20060;-76
2023/12/12 03:52:07;;;;;;;17.80;16.00;;;;;;;3.27;100.00;100577.81;10449918;28;20064;-76
2023/12/12 03:57:08;;;;;;;18.97;17.30;;;;;;;3.15;100.00;100586.59;10425836;28;20037;-76
2023/12/12 04:02:08;;;;;;;18.88;17.30;;;;;;;3.01;100.00;100574.91;10446554;28;20037;-76
2023/12/12 04:07:09;;;;;;;17.03;15.73;;;;;;;2.82;100.00;100563.03;10461821;28;20496;-76
2023/12/12 04:12:09;;;;;;;18.63;17.33;;;;;;;2.61;100.00;100547.78;10426933;28;20040;-76
2023/12/12 04:17:10;;;;;;;18.70;17.20;;;;;;;2.55;100.00;100578.50;10426475;28;20037;-76
2023/12/12 04:22:10;;;;;;;20.67;17.10;;;;;;;2.44;100.00;100579.16;10461201;28;20044;-76
2023/12/12 04:27:11;;;;;;;17.65;15.73;;;;;;;2.34;100.00;100589.59;10461577;28;20044;-76
2023/12/12 04:32:11;;;;;;;16.42;15.32;;;;;;;2.30;100.00;100588.31;10461571;28;20041;-76
2023/12/12 04:37:12;;;;;;;16.77;14.93;;;;;;;2.29;100.00;100589.34;10426210;28;20045;-76
2023/12/12 04:42:13;;;;;;;17.25;15.80;;;;;;;1.85;100.00;100533.72;10459879;28;20045;-76
2023/12/12 04:47:13;;;;;;;17.10;15.80;;;;;;;2.24;100.00;100600.03;10456046;28;20045;-76
2023/12/12 04:52:15;;;;;;;16.90;15.17;;;;;;;2.30;100.00;100582.88;10438214;28;20053;-76
2023/12/12 04:57:16;;;;;;;17.83;16.17;;;;;;;2.43;100.00;100588.31;10459282;28;20048;-75
2023/12/12 05:02:17;;;;;;;20.53;17.07;;;;;;;2.54;100.00;100579.56;10459874;28;20041;-74
2023/12/12 05:07:17;;;;;;;18.48;16.67;;;;;;;2.58;100.00;100567.25;10424766;28;20051;-75
2023/12/12 05:12:17;;;;;;;18.33;16.60;;;;;;;2.68;100.00;100569.50;10458958;28;20041;-76
2023/12/12 05:17:18;;;;;;;22.27;17.48;;;;;;;2.71;100.00;100563.66;10441009;28;20473;-75
2023/12/12 05:22:18;;;;;;;21.17;19.17;;;;;;;2.77;100.00;100572.84;10458730;28;20447;-75
2023/12/12 05:27:20;;;;;;;21.98;20.10;;;;;;;2.86;100.00;100565.34;10424926;28;20044;-75
2023/12/12 05:32:21;;;;;;;22.75;20.42;;;;;;;2.90;100.00;100563.88;10440888;28;20043;-76
2023/12/12 05:37:21;;;;;;;23.57;21.33;;;;;;;2.89;100.00;100560.28;10458157;28;20047;-76
2023/12/12 05:42:21;;;;;;;23.55;20.88;;;;;;;2.86;100.00;100560.72;10439259;28;20045;-76
2023/12/12 05:47:22;;;;;;;22.52;20.38;;;;;;;2.75;100.00;100553.19;10440169;28;20036;-76
2023/12/12 05:52:22;;;;;;;24.07;21.03;;;;;;;2.65;100.00;100556.34;10439553;28;20059;-75
2023/12/12 05:57:23;;;;;;;23.25;20.60;;;;;;;2.56;100.00;100561.19;10440818;28;20056;-76
2023/12/12 06:02:23;;;;;;;28.20;21.97;;;;;;;2.45;100.00;100574.53;10457904;28;20098;-76
2023/12/12 06:07:24;;;;;;;28.53;21.37;;;;;;;2.38;100.00;100563.69;10422406;28;20052;-76
2023/12/12 06:12:25;;;;;;;27.13;19.93;;;;;;;2.29;100.00;100564.91;10422119;28;20043;-76
2023/12/12 06:17:26;;;;;;;24.30;19.53;;;;;;;2.21;100.00;100566.78;10456026;28;20037;-76
2023/12/12 06:22:26;;;;;;;38.53;19.58;;;;;;;2.10;100.00;100561.94;10456042;28;20455;-76
2023/12/12 06:27:27;;;;;;;33.13;22.65;;;;;;;2.01;100.00;100561.31;10438818;28;20045;-76
2023/12/12 06:32:27;;;;;;;34.57;22.80;;;;;;;1.99;100.00;100551.72;10421804;28;20033;-76
2023/12/12 06:37:28;;;;;;;32.17;22.50;;;;;;;1.97;100.00;100556.50;10455879;28;20049;-76
2023/12/12 06:42:28;;;;;;;27.63;21.00;;;;;;;1.90;100.00;100551.06;10420620;28;21064;-76
2023/12/12 06:47:29;;;;;;;30.00;21.27;;;;;;;1.81;100.00;100553.13;10455493;28;20121;-76
2023/12/12 06:52:29;;;;;;;47.50;20.70;;;;;;;1.83;100.00;100543.94;10455716;28;20560;-77
2023/12/12 06:57:30;;;;;;;32.33;21.70;;;;;;;1.83;100.00;100546.66;10455828;28;20029;-76
2023/12/12 07:02:30;;;;;;;36.00;21.93;;;;;;;1.75;100.00;100525.97;10437698;28;20041;-76
2023/12/12 07:07:32;;;;;;;35.47;20.95;;;;;;;1.94;100.00;100546.91;10454777;28;20044;-76
2023/12/12 07:12:33;;;;;;;35.53;22.60;;;;;;;2.11;100.00;100558.22;10454556;28;20045;-76
2023/12/12 07:17:33;;;;;;;44.43;26.20;;;;;;;2.25;100.00;100563.66;10423469;28;20037;-76
2023/12/12 07:22:34;;;;;;;48.20;26.37;;;;;;;2.39;100.00;100554.47;10454887;28;20477;-76
2023/12/12 07:27:34;;;;;;;44.45;25.48;;;;;;;2.55;100.00;100547.78;10455315;28;20037;-77
2023/12/12 07:32:35;;;;;;;60.10;28.07;;;;;;;2.68;100.00;100546.94;10462570;28;20040;-76
2023/12/12 07:37:35;;;;;;;48.57;26.53;;;;;;;2.82;100.00;100543.16;10461695;28;20094;-75
2023/12/12 07:42:36;;;;;;;39.00;26.60;;;;;;;2.61;100.00;100498.84;10461422;28;20064;-76
2023/12/12 07:47:36;;;;;;;43.35;25.33;;;;;;;2.90;100.00;100540.22;10461417;28;20045;-76
2023/12/12 07:52:37;;;;;;;63.33;28.60;;;;;;;2.95;100.00;100526.81;10461706;28;20064;-76
2023/12/12 07:57:37;;;;;;;54.90;29.48;;;;;;;3.12;100.00;100529.06;10443615;28;20037;-76
2023/12/12 08:02:38;;;;;;;77.23;29.33;;;;;;;3.22;100.00;100533.03;10442822;28;20041;-77
2023/12/12 08:07:38;;;;;;;114.72;31.15;;;;;;;3.31;100.00;100536.34;10475595;28;20086;-77
2023/12/12 08:12:39;;;;;;;68.35;26.15;;;;;;;3.30;100.00;100534.66;10448016;28;20040;-77
2023/12/12 08:17:39;;;;;;;80.35;29.35;;;;;;;3.10;100.00;100490.38;10459959;28;20039;-76
2023/12/12 08:22:40;;;;;;;66.72;29.55;;;;;;;3.42;100.00;100535.66;10459879;28;20048;-76
2023/12/12 08:27:40;;;;;;;117.65;33.20;;;;;;;3.43;100.00;100523.75;10460785;28;20048;-76
2023/12/12 08:32:41;;;;;;;105.63;33.00;;;;;;;3.53;100.00;100527.88;10441920;28;20048;-76
2023/12/12 08:37:41;;;;;;;176.38;36.35;;;;;;;3.29;100.00;100484.03;10464693;28;20036;-75
2023/12/12 08:42:42;;;;;;;178.40;37.53;;;;;;;3.63;100.00;100529.06;10448806;28;20036;-76
2023/12/12 08:47:42;;;;;;;114.63;33.47;;;;;;;3.70;100.00;100528.19;10462576;28;20049;-76
2023/12/12 08:52:42;;;;;;;188.02;40.92;;;;;;;3.76;100.00;100525.47;10457870;28;20082;-77
2023/12/12 08:57:43;;;;;;;168.15;39.88;;;;;;;3.86;100.00;100518.69;10458910;28;20033;-76
2023/12/12 09:02:44;;;;;;;235.70;43.92;;;;;;;3.93;100.00;100523.06;10458643;28;20045;-77
2023/12/12 09:07:44;;;;;;;135.32;37.60;;;;;;;3.97;100.00;100501.66;10457620;28;20064;-76
2023/12/12 09:12:44;;;;;;;265.13;47.10;;;;;;;4.19;100.00;100499.41;10423622;28;20037;-76
2023/12/12 09:17:45;;;;;;;266.08;47.08;;;;;;;4.32;100.00;100503.91;10458026;28;20059;-76
2023/12/12 09:22:45;;;;;;;222.80;46.25;;;;;;;4.50;100.00;100501.22;10458540;28;20041;-76
2023/12/12 09:27:46;;;;;;;331.65;50.45;;;;;;;4.60;100.00;100498.84;10440328;28;20037;-77
2023/12/12 09:32:46;;;;;;;328.23;52.33;;;;;;;4.64;100.00;100502.78;10457584;28;20087;-77
2023/12/12 09:37:47;;;;;;;432.10;57.00;;;;;;;4.71;100.00;100507.34;10438775;28;20033;-76
2023/12/12 09:42:48;;;;;;;222.77;46.08;;;;;;;4.73;100.00;100505.22;10456820;28;20029;-76
2023/12/12 09:47:48;;;;;;;264.05;48.50;;;;;;;4.76;100.00;100480.25;10438776;28;20065;-76
2023/12/12 09:52:49;;;;;;;240.73;48.28;;;;;;;4.83;100.00;100481.81;10438540;28;20401;-77
2023/12/12 09:57:49;;;;;;;347.95;53.00;;;;;;;4.78;100.00;100470.75;10439021;28;20060;-76
2023/12/12 10:02:50;;;;;;;269.95;51.05;;;;;;;4.54;100.00;100426.13;10438809;28;20048;-77
2023/12/12 10:07:51;;;;;;;199.13;47.72;;;;;;;4.80;100.00;100457.75;10437944;28;20036;-76
2023/12/12 10:12:51;;;;;;;297.65;53.22;;;;;;;4.83;100.00;100451.00;10437459;28;20578;-77
2023/12/12 10:17:58;;;;;;;303.33;55.15;;;;;;;4.86;100.00;100439.63;10455489;28;20489;-76
2023/12/12 10:23:01;;;;;;;190.23;49.75;;;;;;;4.92;100.00;100426.97;10438355;28;20067;-76
2023/12/12 10:28:02;;;;;;;186.80;48.85;;;;;;;5.08;100.00;100429.06;10455635;28;20110;-77
2023/12/12 10:33:03;;;;;;;210.57;52.03;;;;;;;5.02;100.00;100409.03;10437116;28;20545;-77
2023/12/12 10:38:04;;;;;;;192.95;51.65;;;;;;;5.16;100.00;100401.47;10420433;28;20128;-77
2023/12/12 10:43:05;;;;;;;251.93;52.15;;;;;;;5.13;100.00;100392.94;10436543;28;20541;-76
2023/12/12 10:48:06;;;;;;;298.98;54.53;;;;;;;5.17;100.00;100388.69;10436917;28;20033;-75
2023/12/12 10:53:07;;;;;;;300.95;52.53;;;;;;;5.21;100.00;100388.00;10420322;28;20041;-76
2023/12/12 10:58:07;;;;;;;243.88;50.10;;;;;;;5.08;100.00;100392.78;10420632;28;20037;-74
2023/12/12 11:03:08;;;;;;;262.83;53.33;;;;;;;5.06;100.00;100384.81;10418956;28;20564;-76
2023/12/12 11:08:08;;;;;;;267.45;51.90;;;;;;;4.93;100.00;100380.38;10419177;28;20075;-76
2023/12/12 11:13:09;;;;;;;194.38;45.35;;;;;;;5.00;100.00;100361.19;10402645;28;20040;-76
2023/12/12 11:18:09;;;;;;;173.88;47.28;;;;;;;5.07;100.00;100344.75;10403106;28;20033;-76
2023/12/12 11:23:10;;;;;;;146.98;45.17;;;;;;;5.11;100.00;100344.03;10436823;28;20106;-76
2023/12/12 11:28:10;;;;;;;228.27;47.25;;;;;;;5.19;100.00;100349.19;10453325;28;20045;-75
2023/12/12 11:33:11;;;;;;;165.30;45.38;;;;;;;5.21;100.00;100329.84;10435326;28;20045;-76
2023/12/12 11:38:31;;;;;;;174.88;43.33;;;;;;;5.15;100.00;100322.59;10435148;28;20044;-76
2023/12/12 11:43:32;;;;;;;136.60;43.30;;;;;;;5.18;100.00;100322.94;10395178;28;20515;-77
2023/12/12 11:48:32;;;;;;;181.43;43.25;;;;;;;4.86;100.00;100276.00;10411880;28;20080;-76
2023/12/12 11:53:40;;;;;;;139.50;41.75;;;;;;;5.06;100.00;100297.50;10395159;28;20037;-79
2023/12/12 11:58:40;;;;;;;134.40;43.75;;;;;;;5.11;100.00;100303.13;10379302;28;20037;-76
2023/12/12 12:03:41;;;;;;;157.98;43.47;;;;;;;5.15;100.00;100301.59;10412668;28;20034;-78
2023/12/12 12:08:41;;;;;;;153.18;46.08;;;;;;;5.15;100.00;100296.13;10409245;28;20048;-77
2023/12/12 12:13:42;;;;;;;148.18;47.38;;;;;;;5.16;100.00;100291.50;10412405;28;20048;-77
2023/12/12 12:18:43;;;;;;;124.88;48.72;;;;;;;5.19;100.00;100291.03;10418680;28;20040;-77
2023/12/12 12:23:43;;;;;;;137.93;50.92;;;;;;;5.08;100.00;100256.34;10419671;28;20064;-77
2023/12/12 12:28:44;;;;;;;129.13;51.53;;;;;;;5.24;100.00;100255.69;10417284;28;20042;-78
2023/12/12 12:33:44;;;;;;;157.60;55.40;;;;;;;5.33;100.00;100253.44;10400960;28;20497;-75
2023/12/12 12:38:45;;;;;;;135.77;52.53;;;;;;;5.35;100.00;100241.22;10417383;28;20048;-77
2023/12/12 12:43:53;;;;;;;134.48;51.35;;;;;;;5.42;100.00;100236.50;10400861;28;20037;-77
2023/12/12 12:48:53;;;;;;;120.90;52.28;;;;;;;5.38;100.00;100210.72;10417323;28;20041;-78
2023/12/12 12:53:54;;;;;;;110.10;51.92;;;;;;;5.38;100.00;100208.00;10416521;28;20060;-77
2023/12/12 12:58:54;;;;;;;125.75;52.72;;;;;;;5.49;100.00;100213.69;10415799;28;20042;-78
2023/12/12 13:03:55;;;;;;;127.13;52.25;;;;;;;5.46;100.00;100204.91;10415882;28;20045;-76
2023/12/12 13:08:57;;;;;;;123.57;55.05;;;;;;;5.52;100.00;100211.34;10415421;28;20112;-77
2023/12/12 13:13:57;;;;;;;139.15;54.97;;;;;;;5.53;100.00;100199.34;10417857;28;20052;-77
2023/12/12 13:18:57;;;;;;;147.63;57.28;;;;;;;5.54;100.00;100189.25;10417886;28;20052;-77
2023/12/12 13:23:58;;;;;;;132.00;50.78;;;;;;;5.59;100.00;100175.72;10417109;28;20033;-78
2023/12/12 13:28:58;;;;;;;111.05;49.83;;;;;;;5.56;100.00;100159.78;10415599;28;20060;-77
2023/12/12 13:33:59;;;;;;;110.60;50.58;;;;;;;5.62;100.00;100167.03;10382162;28;20045;-77
2023/12/12 13:38:59;;;;;;;116.18;51.72;;;;;;;5.59;100.00;100159.34;10414947;28;20087;-77
2023/12/12 13:44:00;;;;;;;109.82;49.58;;;;;;;5.53;100.00;100133.81;10399455;28;20030;-77
2023/12/12 13:49:00;;;;;;;132.52;52.25;;;;;;;5.51;100.00;100121.47;10399167;28;20053;-77
2023/12/12 13:54:01;;;;;;;124.93;53.47;;;;;;;5.54;100.00;100113.63;10416690;28;20045;-77
2023/12/12 13:59:01;;;;;;;130.48;55.63;;;;;;;5.52;100.00;100104.84;10388546;28;20041;-78
2023/12/12 14:04:02;;;;;;;141.23;55.65;;;;;;;5.48;100.00;100081.84;10428825;28;20072;-78
2023/12/12 14:09:03;;;;;;;134.07;55.42;;;;;;;5.60;100.00;100084.53;10429620;28;20049;-77
2023/12/12 14:14:04;;;;;;;134.48;57.17;;;;;;;5.60;100.00;100092.72;10416021;28;20033;-77
2023/12/12 14:19:06;;;;;;;125.45;55.05;;;;;;;5.64;100.00;100099.34;10412935;28;20501;-77
2023/12/12 14:24:07;;;;;;;147.65;56.50;;;;;;;5.62;100.00;100090.56;10421571;28;20570;-77
2023/12/12 14:29:08;;;;;;;142.35;56.50;;;;;;;5.60;100.00;100079.91;10428826;28;20044;-78
2023/12/12 14:34:08;;;;;;;127.68;53.58;;;;;;;5.62;100.00;100072.31;10425680;28;20064;-77
2023/12/12 14:39:09;;;;;;;130.73;56.92;;;;;;;5.64;100.00;100072.03;10421823;28;20033;-77
2023/12/12 14:44:09;;;;;;;136.73;58.72;;;;;;;5.57;100.00;100057.72;10409853;28;20370;-78
2023/12/12 14:49:10;;;;;;;132.77;55.80;;;;;;;5.61;100.00;100058.88;10428402;28;20048;-77
2023/12/12 14:54:10;;;;;;;142.98;59.67;;;;;;;5.55;100.00;100044.28;10412168;28;20045;-77
2023/12/12 14:59:11;;;;;;;136.10;58.17;;;;;;;5.59;100.00;100044.66;10432262;28;20072;-77
2023/12/12 15:04:11;;;;;;;139.57;58.58;;;;;;;5.59;100.00;100040.00;10414328;28;20029;-75
2023/12/12 15:09:12;;;;;;;145.98;60.70;;;;;;;5.49;100.00;100022.59;10414704;28;20060;-77
2023/12/12 15:14:13;;;;;;;140.82;58.70;;;;;;;5.60;100.00;100029.91;10413259;28;20112;-78
2023/12/12 15:19:14;;;;;;;151.20;60.20;;;;;;;5.55;100.00;100005.25;10412474;28;20069;-78
2023/12/12 15:24:14;;;;;;;150.10;61.85;;;;;;;5.64;100.00;100006.50;10412211;28;20464;-78
2023/12/12 15:29:15;;;;;;;161.15;65.15;;;;;;;5.65;100.00;100000.00;10411024;28;20086;-79
2023/12/12 15:34:15;;;;;;;161.63;63.45;;;;;;;5.70;100.00;99991.88;10423793;28;20041;-77
2023/12/12 15:39:16;;;;;;;164.90;65.30;;;;;;;5.66;100.00;99974.31;10427982;28;20044;-77
2023/12/12 15:44:17;;;;;;;173.75;68.50;;;;;;;5.69;100.00;99976.59;10409717;28;20044;-78
2023/12/12 15:49:17;;;;;;;165.07;64.15;;;;;;;5.69;100.00;99957.47;10434278;28;20055;-77
2023/12/12 15:54:18;;;;;;;172.00;66.20;;;;;;;5.73;100.00;99942.25;10438379;28;20037;-77
2023/12/12 15:59:19;;;;;;;166.88;64.03;;;;;;;5.70;100.00;99937.25;10435287;28;20084;-78
2023/12/12 16:04:20;;;;;;;166.27;67.13;;;;;;;5.75;100.00;99942.84;10438514;28;20044;-78
2023/12/12 16:09:20;;;;;;;158.32;66.03;;;;;;;5.73;100.00;99925.88;10426151;28;20033;-77
2023/12/12 16:14:21;;;;;;;153.30;64.00;;;;;;;5.70;100.00;99912.69;10436417;28;20139;-77
2023/12/12 16:19:26;;;;;;;163.48;64.53;;;;;;;5.71;100.00;99917.09;10418908;28;20038;-78
2023/12/12 16:24:26;;;;;;;170.27;64.18;;;;;;;5.76;100.00;99902.69;10400167;28;20049;-78
2023/12/12 16:29:27;;;;;;;164.25;66.18;;;;;;;5.76;100.00;99897.22;10418306;28;20576;-78
2023/12/12 16:34:28;;;;;;;156.75;63.95;;;;;;;5.65;100.00;99869.72;10411645;28;20478;-78
2023/12/12 16:39:28;;;;;;;160.82;63.88;;;;;;;5.73;100.00;99884.91;10437729;28;20045;-78
2023/12/12 16:44:29;;;;;;;167.40;63.63;;;;;;;5.72;100.00;99869.56;10475043;28;20037;-78
2023/12/12 16:49:29;;;;;;;172.35;68.47;;;;;;;5.71;100.00;99851.53;10433380;28;20138;-78
2023/12/12 16:54:30;;;;;;;169.27;62.47;;;;;;;5.75;100.00;99847.25;10472238;28;20036;-77
2023/12/12 16:59:31;;;;;;;167.50;64.55;;;;;;;5.78;100.00;99849.47;10471974;28;20118;-77
2023/12/12 17:04:32;;;;;;;164.20;63.22;;;;;;;5.81;100.00;99846.25;10452862;28;20044;-76
2023/12/12 17:09:33;;;;;;;183.68;64.22;;;;;;;5.80;100.00;99839.13;10444042;28;20116;-77
2023/12/12 17:14:33;;;;;;;180.55;63.13;;;;;;;5.80;100.00;99833.66;10439218;28;20033;-77
2023/12/12 17:19:34;;;;;;;184.02;63.63;;;;;;;5.76;100.00;99829.75;10458020;28;20123;-77
2023/12/12 17:24:37;;;;;;;188.73;62.03;;;;;;;5.73;100.00;99811.16;10439269;28;20060;-77
2023/12/12 17:29:38;;;;;;;172.68;59.30;;;;;;;5.73;100.00;99813.06;10434612;28;20123;-77
2023/12/12 17:34:39;;;;;;;159.38;58.58;;;;;;;5.72;100.00;99806.75;10432556;28;20045;-77
2023/12/12 17:39:41;;;;;;;167.00;60.28;;;;;;;5.75;100.00;99800.81;10439185;28;20059;-77
2023/12/12 17:44:42;;;;;;;170.85;56.95;;;;;;;5.73;100.00;99802.97;10423612;28;20048;-76
2023/12/12 17:49:42;;;;;;;162.50;58.00;;;;;;;5.76;100.00;99794.25;10438391;28;20049;-76
2023/12/12 17:54:43;;;;;;;152.60;56.78;;;;;;;5.75;100.00;99781.69;10456332;28;20048;-77
2023/12/12 17:59:44;;;;;;;156.48;56.58;;;;;;;5.59;100.00;99763.41;10437876;28;20045;-77
2023/12/12 18:04:44;;;;;;;154.27;54.22;;;;;;;5.68;100.00;99778.28;10420890;28;20041;-77
2023/12/12 18:09:45;;;;;;;144.27;56.00;;;;;;;5.80;100.00;99803.59;10422142;28;20150;-76
2023/12/12 18:14:45;;;;;;;137.00;55.38;;;;;;;5.78;100.00;99807.69;10456087;28;20041;-76
2023/12/12 18:19:45;;;;;;;145.73;52.83;;;;;;;5.81;100.00;99796.28;10460437;28;20048;-77
2023/12/12 18:24:46;;;;;;;156.60;52.58;;;;;;;5.84;100.00;99788.38;10423136;28;20071;-76
2023/12/12 18:29:47;;;;;;;149.90;51.85;;;;;;;5.79;100.00;99768.38;10455991;28;20040;-76
2023/12/12 18:34:47;;;;;;;137.98;50.45;;;;;;;5.75;100.00;99754.38;10420698;28;20037;-76
2023/12/12 18:39:48;;;;;;;134.15;48.88;;;;;;;5.79;100.00;99738.34;10422383;28;20048;-76
2023/12/12 18:44:48;;;;;;;142.55;49.38;;;;;;;5.76;100.00;99730.63;10440060;28;20040;-76
2023/12/12 18:49:49;;;;;;;129.50;47.00;;;;;;;5.74;100.00;99722.69;10419433;28;20037;-77
2023/12/12 18:54:49;;;;;;;135.50;46.72;;;;;;;5.82;100.00;99716.78;10453195;28;20033;-77
2023/12/12 18:59:50;;;;;;;135.10;48.72;;;;;;;5.82;100.00;99703.13;10402725;28;20064;-77
2023/12/12 19:04:50;;;;;;;121.10;45.20;;;;;;;5.71;100.00;99676.78;10421641;28;20055;-77
2023/12/12 19:09:55;;;;;;;117.47;45.65;;;;;;;5.86;100.00;99707.00;10436230;28;20064;-77
2023/12/12 19:14:55;;;;;;;139.25;48.70;;;;;;;5.71;100.00;99671.31;10422820;28;20052;-77
2023/12/12 19:19:56;;;;;;;108.00;45.25;;;;;;;5.74;100.00;99653.59;10429830;28;20056;-77
2023/12/12 19:24:56;;;;;;;116.38;46.17;;;;;;;5.85;100.00;99667.13;10436945;28;20041;-77
2023/12/12 19:29:57;;;;;;;91.45;41.72;;;;;;;5.79;100.00;99657.22;10452897;28;20040;-77
2023/12/12 19:34:58;;;;;;;100.05;42.85;;;;;;;5.90;100.00;99668.28;10455807;28;20457;-78
2023/12/12 19:39:59;;;;;;;111.32;44.35;;;;;;;5.86;100.00;99663.31;10429002;28;20038;-77
2023/12/12 19:45:02;;;;;;;108.03;43.97;;;;;;;5.85;100.00;99652.66;10453928;28;20060;-77
2023/12/12 19:50:06;;;;;;;111.32;43.42;;;;;;;5.82;100.00;99637.56;10428463;28;20092;-77
2023/12/12 19:55:07;;;;;;;114.88;40.42;;;;;;;5.90;100.00;99644.50;10460498;28;20053;-77
2023/12/12 20:00:09;;;;;;;118.32;41.10;;;;;;;5.95;100.00;99662.91;10409630;28;20040;-78
2023/12/12 20:05:09;;;;;;;101.63;40.45;;;;;;;5.91;100.00;99648.88;10442159;28;20044;-77
2023/12/12 20:10:12;;;;;;;105.38;41.40;;;;;;;5.89;100.00;99633.84;10426020;28;20036;-76
2023/12/12 20:15:14;;;;;;;111.07;42.42;;;;;;;5.96;100.00;99638.06;10443247;28;20485;-78
2023/12/12 20:20:15;;;;;;;97.97;38.38;;;;;;;5.90;100.00;99616.38;10427713;28;20308;-78
2023/12/12 20:25:19;;;;;;;88.85;39.05;;;;;;;5.97;100.00;99630.69;10458961;28;20039;-77
2023/12/12 20:30:20;;;;;;;96.00;41.10;;;;;;;5.99;100.00;99634.00;10441533;28;20487;-77
2023/12/12 20:35:20;;;;;;;94.72;40.00;;;;;;;6.03;100.00;99624.22;10441103;28;20037;-76
2023/12/12 20:40:21;;;;;;;103.75;40.33;;;;;;;6.02;100.00;99617.09;10458984;28;20091;-78
2023/12/12 20:45:21;;;;;;;85.00;38.50;;;;;;;6.04;100.00;99614.94;10416512;28;20033;-78
2023/12/12 20:50:22;;;;;;;94.45;40.67;;;;;;;6.05;100.00;99613.84;10399251;28;20083;-77
2023/12/12 20:55:22;;;;;;;91.78;39.28;;;;;;;6.01;100.00;99616.25;10416001;28;20072;-77
2023/12/12 21:00:27;;;;;;;82.63;39.40;;;;;;;6.08;100.00;99616.09;10378243;28;20080;-77
2023/12/12 21:05:27;;;;;;;82.50;41.33;;;;;;;6.06;100.00;99608.13;10416555;28;20120;-76
2023/12/12 21:10:28;;;;;;;72.22;41.80;;;;;;;6.13;100.00;99613.41;10399117;28;20052;-77
2023/12/12 21:15:29;;;;;;;83.53;41.92;;;;;;;6.18;100.00;99608.00;10412874;28;20037;-78
2023/12/12 21:20:29;;;;;;;86.28;41.50;;;;;;;5.73;100.00;99535.34;10381721;28;20473;-77
2023/12/12 21:25:29;;;;;;;84.75;40.65;;;;;;;6.11;100.00;99587.41;10383668;28;20045;-77
2023/12/12 21:30:30;;;;;;;82.75;40.35;;;;;;;6.16;100.00;99585.56;10417066;28;20091;-77
2023/12/12 21:35:31;;;;;;;80.88;40.97;;;;;;;6.14;100.00;99582.28;10398949;28;20040;-78
2023/12/12 21:40:31;;;;;;;79.72;41.78;;;;;;;6.19;100.00;99573.31;10403915;28;20038;-78
2023/12/12 21:45:32;;;;;;;96.32;41.35;;;;;;;6.17;100.00;99565.34;10368754;28;20061;-77
2023/12/12 21:50:32;;;;;;;92.63;43.25;;;;;;;6.14;100.00;99557.69;10404113;28;20041;-77
2023/12/12 21:55:35;;;;;;;83.93;40.47;;;;;;;6.17;100.00;99561.78;10414548;28;20036;-78
2023/12/12 22:00:35;;;;;;;88.07;42.60;;;;;;;6.12;100.00;99551.66;10411090;28;20042;-77
2023/12/12 22:05:35;;;;;;;94.80;41.92;;;;;;;6.13;100.00;99553.28;10416798;28;20046;-78
2023/12/12 22:10:36;;;;;;;82.22;41.80;;;;;;;5.83;100.00;99510.06;10363345;28;20048;-77
2023/12/12 22:15:37;;;;;;;98.18;41.83;;;;;;;6.14;100.00;99559.56;10399445;28;20067;-77
2023/12/12 22:20:38;;;;;;;96.72;42.45;;;;;;;6.11;100.00;99566.38;10411909;28;20048;-77
2023/12/12 22:25:39;;;;;;;93.13;40.83;;;;;;;5.96;100.00;99530.72;10395893;28;20052;-77